Time;durP1;ratioP1;P1;durP2;ratioP2;P2;SDS_P1;SDS_P2;PMS_P1;PMS_P2;Temp;Humidity;BMP_temperature;BMP_pressure;BME280_temperature;BME280_humidity;BME280_pressure;Samples;Min_cycle;Max_cycle;Signal;HPM_P1;HPM_P2
2022/02/13 00:02:07;;;;;;;23.95;11.78;;;;;;;-4.40;74.73;99306.92;1678257;85;21442;-80
2022/02/13 00:04:35;;;;;;;22.15;11.45;;;;;;;-4.44;74.64;99304.55;1684993;85;20981;-80
2022/02/13 00:07:03;;;;;;;24.92;11.50;;;;;;;-4.48;74.72;99304.33;1696189;84;21016;-80
2022/02/13 00:09:31;;;;;;;21.27;10.50;;;;;;;-4.55;74.80;99304.02;1696290;84;21465;-78
2022/02/13 00:12:02;;;;;;;24.70;12.20;;;;;;;-4.55;74.89;99305.70;1696296;83;21410;-77
2022/02/13 00:14:29;;;;;;;24.37;11.75;;;;;;;-4.59;74.96;99308.55;1696289;85;21072;-79
2022/02/13 00:16:56;;;;;;;20.65;11.12;;;;;;;-4.60;75.31;99303.29;1707706;83;21029;-78
2022/02/13 00:19:23;;;;;;;22.25;11.20;;;;;;;-4.59;75.12;99311.53;1707994;84;21084;-77
2022/02/13 00:21:50;;;;;;;22.13;10.68;;;;;;;-4.63;75.21;99313.08;1707979;83;21032;-79
2022/02/13 00:24:18;;;;;;;20.97;10.78;;;;;;;-4.60;75.40;99306.78;1698444;83;21052;-78
2022/02/13 00:26:45;;;;;;;27.67;9.80;;;;;;;-4.61;75.31;99303.68;1696309;84;21486;-78
2022/02/13 00:29:11;;;;;;;26.05;11.60;;;;;;;-4.61;75.27;99305.40;1696164;84;21031;-78
2022/02/13 00:31:38;;;;;;;23.45;10.58;;;;;;;-4.58;75.42;99301.66;1696297;84;21032;-79
2022/02/13 00:34:05;;;;;;;18.35;10.25;;;;;;;-4.56;75.53;99288.41;1696080;84;21114;-78
2022/02/13 00:36:33;;;;;;;20.05;10.20;;;;;;;-4.53;75.42;99296.34;1696118;83;21059;-79
2022/02/13 00:39:00;;;;;;;23.87;10.72;;;;;;;-4.55;75.62;99296.66;1708073;84;20996;-79
2022/02/13 00:41:27;;;;;;;21.75;10.63;;;;;;;-4.57;75.51;99292.69;1708403;83;21013;-79
2022/02/13 00:43:54;;;;;;;23.90;11.33;;;;;;;-4.56;75.71;99291.00;1708182;83;21033;-77
2022/02/13 00:46:23;;;;;;;25.00;11.33;;;;;;;-4.57;75.64;99277.59;1708129;83;21493;-77
2022/02/13 00:48:51;;;;;;;25.77;11.63;;;;;;;-4.54;75.64;99286.39;1708126;83;21081;-78
2022/02/13 00:51:17;;;;;;;24.23;12.20;;;;;;;-4.54;75.71;99281.61;1704103;83;21024;-75
2022/02/13 00:53:46;;;;;;;28.27;12.50;;;;;;;-4.58;76.00;99270.61;1700695;83;21506;-76
2022/02/13 00:56:13;;;;;;;28.55;14.45;;;;;;;-4.57;75.93;99280.17;1685982;85;21005;-75
2022/02/13 00:58:41;;;;;;;32.03;15.05;;;;;;;-4.56;76.05;99271.59;1678514;85;21526;-79
2022/02/13 01:01:08;;;;;;;33.55;16.67;;;;;;;-4.59;75.92;99270.13;1678271;85;21068;-77
2022/02/13 01:03:35;;;;;;;36.70;16.60;;;;;;;-4.58;76.32;99266.73;1678361;85;21415;-78
2022/02/13 01:06:03;;;;;;;33.10;17.50;;;;;;;-4.56;76.42;99262.55;1695956;85;21109;-77
2022/02/13 01:08:30;;;;;;;35.43;17.90;;;;;;;-4.54;76.78;99258.32;1696500;84;21048;-78
2022/02/13 01:10:57;;;;;;;40.20;19.17;;;;;;;-4.51;76.39;99255.91;1696468;84;21028;-77
2022/02/13 01:13:23;;;;;;;40.25;19.73;;;;;;;-4.51;76.66;99243.86;1671507;84;21028;-77
2022/02/13 01:15:50;;;;;;;39.48;19.67;;;;;;;-4.46;76.88;99249.66;1697840;84;21112;-77
2022/02/13 01:18:18;;;;;;;42.23;20.15;;;;;;;-4.46;76.41;99249.66;1659347;86;20965;-78
2022/02/13 01:20:46;;;;;;;50.63;22.42;;;;;;;-4.44;77.54;99238.98;1708360;83;21425;-77
2022/02/13 01:23:13;;;;;;;49.58;20.92;;;;;;;-4.41;76.92;99234.84;1708203;83;21032;-78
2022/02/13 01:25:39;;;;;;;47.58;22.02;;;;;;;-4.41;76.98;99238.73;1708064;84;20985;-76
2022/02/13 01:28:06;;;;;;;46.98;21.52;;;;;;;-4.36;77.43;99232.52;1708315;84;21053;-78
2022/02/13 01:30:33;;;;;;;45.17;21.55;;;;;;;-4.33;77.04;99230.48;1708256;84;21085;-76
2022/02/13 01:33:01;;;;;;;46.73;21.65;;;;;;;-4.32;76.90;99224.06;1708390;84;21056;-76
2022/02/13 01:35:28;;;;;;;44.88;22.13;;;;;;;-4.28;79.03;99231.59;1694119;84;21056;-77
2022/02/13 01:37:55;;;;;;;48.05;22.20;;;;;;;-4.28;77.24;99229.88;1678469;85;21423;-77
2022/02/13 01:40:21;;;;;;;51.50;23.22;;;;;;;-4.27;76.92;99227.77;1678417;85;21057;-79
2022/02/13 01:42:48;;;;;;;45.28;21.17;;;;;;;-4.20;77.12;99217.31;1679852;84;21029;-80
2022/02/13 01:45:14;;;;;;;49.38;22.50;;;;;;;-4.21;78.32;99225.00;1708272;84;21495;-76
2022/02/13 01:47:41;;;;;;;50.75;23.52;;;;;;;-4.17;78.02;99212.69;1708491;84;21028;-77
2022/02/13 01:50:10;;;;;;;44.65;21.68;;;;;;;-4.15;77.68;99213.67;1708301;84;21005;-77
2022/02/13 01:52:40;;;;;;;43.73;21.55;;;;;;;-4.16;77.52;99208.89;1700170;84;21060;-79
2022/02/13 01:55:08;;;;;;;46.02;20.95;;;;;;;-4.10;77.46;99200.54;1696394;84;21462;-79
2022/02/13 01:57:34;;;;;;;50.65;22.75;;;;;;;-4.07;77.62;99207.14;1696437;84;21497;-79
2022/02/13 02:00:01;;;;;;;55.38;22.85;;;;;;;-4.05;77.16;99202.05;1696349;84;21080;-78
2022/02/13 02:02:29;;;;;;;53.25;22.22;;;;;;;-4.08;77.23;99197.61;1695343;84;21001;-76
2022/02/13 02:04:57;;;;;;;54.00;23.47;;;;;;;-4.09;77.56;99196.23;1681667;84;21058;-77
2022/02/13 02:07:25;;;;;;;54.03;23.55;;;;;;;-4.08;77.80;99197.61;1667648;86;21498;-77
2022/02/13 02:09:52;;;;;;;50.73;23.38;;;;;;;-4.08;77.70;99201.91;1667902;86;21079;-77
2022/02/13 02:12:21;;;;;;;44.35;20.55;;;;;;;-4.05;77.66;99186.50;1678082;84;21000;-77
2022/02/13 02:14:48;;;;;;;48.63;20.82;;;;;;;-4.07;77.50;99190.31;1679387;84;21045;-77
2022/02/13 02:17:14;;;;;;;47.00;21.27;;;;;;;-4.07;78.33;99188.15;1678488;85;21080;-77
2022/02/13 02:19:41;;;;;;;45.00;20.50;;;;;;;-4.06;77.61;99191.21;1678378;85;21017;-77
2022/02/13 02:22:09;;;;;;;45.30;20.40;;;;;;;-4.08;77.50;99188.55;1678601;85;20974;-77
2022/02/13 02:24:36;;;;;;;48.13;22.05;;;;;;;-4.08;77.83;99192.42;1678360;85;21072;-77
2022/02/13 02:27:04;;;;;;;45.30;19.98;;;;;;;-4.05;78.05;99190.39;1688600;84;21402;-77
2022/02/13 02:29:32;;;;;;;40.50;18.52;;;;;;;-4.05;77.94;99179.64;1667975;86;21103;-77
2022/02/13 02:32:00;;;;;;;43.48;19.52;;;;;;;-4.07;79.14;99192.90;1668114;85;21052;-76
2022/02/13 02:34:27;;;;;;;42.27;18.95;;;;;;;-4.07;77.66;99195.91;1685625;84;21028;-77
2022/02/13 02:36:54;;;;;;;40.75;19.12;;;;;;;-4.09;77.56;99191.95;1690539;84;21414;-77
2022/02/13 02:39:20;;;;;;;40.55;18.85;;;;;;;-4.08;77.66;99192.85;1678529;85;21041;-77
2022/02/13 02:41:47;;;;;;;31.15;16.20;;;;;;;-4.04;77.56;99190.47;1678344;85;21013;-77
2022/02/13 02:44:14;;;;;;;33.92;14.98;;;;;;;-4.06;77.57;99193.80;1683269;84;21037;-77
2022/02/13 02:46:41;;;;;;;33.42;15.48;;;;;;;-4.06;77.31;99193.41;1708341;83;20993;-77
2022/02/13 02:49:07;;;;;;;33.67;14.53;;;;;;;-4.06;77.41;99196.00;1707960;84;21024;-77
2022/02/13 02:51:33;;;;;;;25.55;13.00;;;;;;;-4.07;77.12;99183.84;1708391;84;21390;-77
2022/02/13 02:54:00;;;;;;;29.75;12.75;;;;;;;-4.09;77.22;99185.48;1708220;84;21033;-76
2022/02/13 02:56:26;;;;;;;27.73;12.47;;;;;;;-4.16;77.05;99192.48;1694449;84;21399;-77
2022/02/13 02:58:52;;;;;;;25.50;12.45;;;;;;;-4.18;77.44;99193.70;1678445;85;21049;-77
2022/02/13 03:01:19;;;;;;;30.80;13.65;;;;;;;-4.16;77.35;99191.19;1678322;85;20997;-78
2022/02/13 03:03:47;;;;;;;23.65;12.85;;;;;;;-4.16;77.75;99188.60;1678660;84;21559;-78
2022/02/13 03:06:14;;;;;;;31.25;13.72;;;;;;;-4.14;77.35;99199.52;1700547;84;21017;-77
2022/02/13 03:08:41;;;;;;;24.32;12.30;;;;;;;-4.14;77.67;99198.61;1708131;84;21493;-78
2022/02/13 03:11:09;;;;;;;28.00;12.43;;;;;;;-4.14;77.38;99198.61;1708360;84;21009;-76
2022/02/13 03:13:36;;;;;;;30.32;13.55;;;;;;;-4.12;77.29;99196.58;1708256;84;21076;-77
2022/02/13 03:16:03;;;;;;;31.00;13.15;;;;;;;-4.12;77.17;99188.81;1708155;84;21064;-77
2022/02/13 03:18:30;;;;;;;28.25;13.03;;;;;;;-4.11;77.27;99184.10;1692033;83;21025;-77
2022/02/13 03:20:58;;;;;;;25.57;12.35;;;;;;;-4.11;77.10;99191.00;1678460;85;21041;-77
2022/02/13 03:23:25;;;;;;;24.52;11.60;;;;;;;-4.13;77.04;99195.20;1678324;85;21029;-77
2022/02/13 03:25:52;;;;;;;26.73;12.58;;;;;;;-4.10;77.01;99194.07;1692781;85;21012;-78
2022/02/13 03:28:19;;;;;;;29.48;12.70;;;;;;;-4.11;76.86;99192.30;1693231;85;21017;-78
2022/02/13 03:30:46;;;;;;;27.58;12.80;;;;;;;-4.13;76.93;99188.34;1693114;85;21012;-76
2022/02/13 03:33:14;;;;;;;24.92;11.50;;;;;;;-4.13;78.03;99184.84;1676533;83;21044;-76
2022/02/13 03:35:41;;;;;;;27.35;11.83;;;;;;;-4.17;77.84;99185.11;1726222;83;21512;-82
2022/02/13 03:38:08;;;;;;;25.65;11.90;;;;;;;-4.18;77.22;99184.64;1724932;83;20984;-82
2022/02/13 03:40:34;;;;;;;26.97;11.95;;;;;;;-4.14;77.24;99187.86;1693393;83;20989;-82
2022/02/13 03:43:05;;;;;;;24.47;11.95;;;;;;;-4.15;77.23;99179.59;1691829;83;21072;-82
2022/02/13 03:45:30;;;;;;;22.45;11.93;;;;;;;-4.12;77.23;99187.52;1723336;82;21036;-82
2022/02/13 03:47:56;;;;;;;23.77;11.83;;;;;;;-4.12;77.19;99188.81;1722503;83;21087;-82
2022/02/13 03:50:23;;;;;;;26.82;11.70;;;;;;;-4.10;77.05;99174.65;1722325;83;21052;-81
2022/02/13 03:52:49;;;;;;;21.80;10.70;;;;;;;-4.06;76.96;99180.85;1723629;83;21426;-82
2022/02/13 03:55:16;;;;;;;21.90;10.32;;;;;;;-4.07;77.00;99187.72;1718680;83;21067;-82
2022/02/13 03:57:44;;;;;;;21.12;11.05;;;;;;;-4.06;76.81;99183.44;1694447;84;21016;-82
2022/02/13 04:00:12;;;;;;;26.60;11.40;;;;;;;-4.03;76.91;99177.13;1694512;84;21442;-82
2022/02/13 04:02:41;;;;;;;23.38;10.10;;;;;;;-4.06;76.84;99177.87;1694561;84;21005;-83
2022/02/13 04:05:09;;;;;;;22.27;10.40;;;;;;;-4.11;78.31;99174.17;1694452;85;21067;-81
2022/02/13 04:07:39;;;;;;;19.82;10.68;;;;;;;-4.09;77.17;99170.34;1694679;85;21063;-82
2022/02/13 04:10:09;;;;;;;24.77;10.75;;;;;;;-4.12;77.19;99169.39;1711812;82;21007;-81
2022/02/13 04:12:36;;;;;;;20.32;9.65;;;;;;;-4.11;77.57;99171.16;1711905;83;21494;-83
2022/02/13 04:15:04;;;;;;;24.43;10.00;;;;;;;-4.12;77.15;99168.09;1707146;84;21431;-83
2022/02/13 04:17:30;;;;;;;23.07;10.72;;;;;;;-4.10;77.56;99165.59;1726565;82;21051;-82
2022/02/13 04:19:57;;;;;;;21.05;9.90;;;;;;;-4.09;77.14;99157.39;1756548;82;20992;-82
2022/02/13 04:22:24;;;;;;;18.50;10.20;;;;;;;-4.10;77.75;99166.88;1742438;82;21489;-82
2022/02/13 04:24:51;;;;;;;22.77;10.63;;;;;;;-4.07;77.88;99168.73;1710187;83;21032;-82
2022/02/13 04:27:17;;;;;;;19.87;10.45;;;;;;;-4.05;77.22;99162.81;1688025;84;20995;-83
2022/02/13 04:29:43;;;;;;;24.25;11.73;;;;;;;-4.11;77.64;99164.69;1661963;85;20988;-83
2022/02/13 04:32:11;;;;;;;24.02;9.78;;;;;;;-4.15;77.45;99169.66;1686121;85;21021;-83
2022/02/13 04:34:40;;;;;;;25.80;11.45;;;;;;;-4.16;77.20;99160.98;1686065;85;21020;-82
2022/02/13 04:37:07;;;;;;;34.15;15.32;;;;;;;-4.21;78.27;99166.75;1686141;84;20997;-83
2022/02/13 04:39:33;;;;;;;35.00;15.48;;;;;;;-4.25;77.17;99161.44;1696663;84;21000;-82
2022/02/13 04:42:00;;;;;;;32.05;14.98;;;;;;;-4.31;76.97;99162.45;1714782;84;21036;-83
2022/02/13 04:44:26;;;;;;;33.35;16.12;;;;;;;-4.39;77.43;99161.17;1714830;84;21032;-83
2022/02/13 04:46:53;;;;;;;29.15;15.30;;;;;;;-4.43;77.92;99165.71;1689815;84;21430;-83
2022/02/13 04:49:19;;;;;;;29.35;15.43;;;;;;;-4.51;77.13;99157.58;1683313;84;21044;-83
2022/02/13 04:51:46;;;;;;;33.78;15.72;;;;;;;-4.56;77.27;99152.58;1643746;87;21066;-82
2022/02/13 04:54:13;;;;;;;30.55;15.38;;;;;;;-4.66;78.63;99158.59;1701945;84;21012;-82
2022/02/13 04:56:39;;;;;;;29.77;14.85;;;;;;;-4.74;78.40;99165.06;1675939;86;21082;-82
2022/02/13 04:59:06;;;;;;;37.98;16.32;;;;;;;-4.75;77.61;99158.12;1714769;84;21015;-82
2022/02/13 05:01:32;;;;;;;34.30;16.30;;;;;;;-4.81;77.95;99162.99;1675569;85;21035;-83
2022/02/13 05:03:59;;;;;;;36.30;15.85;;;;;;;-4.88;77.59;99159.20;1697501;84;21399;-83
2022/02/13 05:06:25;;;;;;;35.95;15.85;;;;;;;-4.96;78.68;99162.69;1674057;85;21041;-82
2022/02/13 05:08:53;;;;;;;34.18;15.72;;;;;;;-5.02;78.09;99158.90;1688156;84;21017;-83
2022/02/13 05:11:20;;;;;;;35.78;16.20;;;;;;;-5.08;77.63;99165.92;1698997;84;20979;-82
2022/02/13 05:13:47;;;;;;;32.53;15.03;;;;;;;-5.14;78.52;99169.48;1702226;84;21002;-83
2022/02/13 05:16:14;;;;;;;32.30;15.68;;;;;;;-5.22;78.00;99160.05;1701955;84;21072;-81
2022/02/13 05:18:40;;;;;;;33.02;15.80;;;;;;;-5.29;79.06;99166.59;1701623;84;21021;-82
2022/02/13 05:21:07;;;;;;;35.03;14.73;;;;;;;-5.27;78.49;99168.86;1702322;84;20989;-83
2022/02/13 05:23:34;;;;;;;33.63;15.98;;;;;;;-5.26;78.34;99164.56;1696659;84;21451;-83
2022/02/13 05:26:01;;;;;;;38.02;16.12;;;;;;;-5.26;78.08;99166.76;1692596;84;21051;-82
2022/02/13 05:28:29;;;;;;;32.30;15.15;;;;;;;-5.27;79.55;99162.41;1688972;84;20973;-82
2022/02/13 05:30:56;;;;;;;28.25;14.43;;;;;;;-5.31;78.95;99157.88;1689698;84;21019;-82
2022/02/13 05:33:22;;;;;;;31.80;16.20;;;;;;;-5.28;79.25;99161.03;1689963;85;20988;-83
2022/02/13 05:35:48;;;;;;;33.60;14.28;;;;;;;-5.30;78.69;99157.96;1689711;84;21024;-82
2022/02/13 05:38:15;;;;;;;37.23;15.98;;;;;;;-5.34;79.43;99157.70;1689809;84;22143;-82
2022/02/13 05:40:41;;;;;;;37.93;16.23;;;;;;;-5.38;78.70;99165.70;1689853;85;20980;-82
2022/02/13 05:43:10;;;;;;;31.97;14.47;;;;;;;-5.38;79.09;99167.00;1689925;85;20992;-83
2022/02/13 05:45:36;;;;;;;34.15;14.90;;;;;;;-5.42;78.58;99166.34;1695037;84;21025;-82
2022/02/13 05:48:03;;;;;;;30.15;14.28;;;;;;;-5.45;78.41;99163.20;1701659;84;21004;-83
2022/02/13 05:50:30;;;;;;;36.30;15.20;;;;;;;-5.50;78.87;99168.91;1701686;84;20995;-83
2022/02/13 05:52:56;;;;;;;33.65;15.85;;;;;;;-5.53;78.87;99169.64;1701728;84;21417;-82
2022/02/13 05:55:22;;;;;;;28.07;14.28;;;;;;;-5.52;78.56;99174.41;1701793;84;21020;-83
2022/02/13 05:57:49;;;;;;;33.65;16.40;;;;;;;-5.57;78.55;99166.40;1701579;84;21015;-83
2022/02/13 06:00:16;;;;;;;31.68;15.00;;;;;;;-5.58;78.74;99164.23;1701712;84;20986;-83
2022/02/13 06:02:44;;;;;;;28.40;13.85;;;;;;;-5.53;78.38;99165.77;1701790;84;21016;-82
2022/02/13 06:05:11;;;;;;;30.45;14.38;;;;;;;-5.56;78.48;99163.03;1653987;87;21081;-82
2022/02/13 06:07:39;;;;;;;32.63;13.93;;;;;;;-5.57;78.24;99162.52;1701603;84;20993;-83
2022/02/13 06:10:09;;;;;;;28.92;13.72;;;;;;;-5.53;78.26;99165.77;1701338;84;21450;-83
2022/02/13 06:12:35;;;;;;;27.48;12.93;;;;;;;-5.59;78.61;99161.56;1701669;84;21057;-82
2022/02/13 06:15:03;;;;;;;30.37;13.35;;;;;;;-5.57;78.20;99163.42;1699688;84;21048;-82
2022/02/13 06:17:31;;;;;;;26.50;12.88;;;;;;;-5.53;78.13;99165.77;1701854;84;21044;-82
2022/02/13 06:19:57;;;;;;;28.15;13.05;;;;;;;-5.57;78.12;99168.59;1701695;84;20977;-82
2022/02/13 06:22:24;;;;;;;25.65;13.30;;;;;;;-5.55;78.00;99167.39;1701640;84;21399;-82
2022/02/13 06:24:51;;;;;;;32.85;13.83;;;;;;;-5.51;78.23;99161.59;1706046;83;21055;-82
2022/02/13 06:27:17;;;;;;;26.37;13.25;;;;;;;-5.48;77.97;99166.89;1723077;83;21048;-83
2022/02/13 06:29:44;;;;;;;32.28;12.55;;;;;;;-5.41;77.94;99171.98;1723871;83;21370;-83
2022/02/13 06:32:10;;;;;;;26.93;13.38;;;;;;;-5.39;77.87;99163.03;1723788;83;21045;-83
2022/02/13 06:34:37;;;;;;;30.40;14.00;;;;;;;-5.39;77.90;99163.94;1723946;83;21004;-82
2022/02/13 06:37:04;;;;;;;30.88;12.75;;;;;;;-5.36;77.79;99161.92;1723555;83;21063;-83
2022/02/13 06:39:31;;;;;;;26.23;13.45;;;;;;;-5.33;77.93;99168.52;1723765;83;21003;-83
2022/02/13 06:41:57;;;;;;;30.68;14.20;;;;;;;-5.34;77.79;99165.45;1723586;83;21020;-84
2022/02/13 06:44:24;;;;;;;31.48;14.07;;;;;;;-5.28;77.72;99165.77;1723513;83;21427;-83
2022/02/13 06:46:50;;;;;;;25.90;13.35;;;;;;;-5.22;77.92;99169.99;1694761;85;21039;-83
2022/02/13 06:49:16;;;;;;;30.35;14.43;;;;;;;-5.14;77.71;99164.32;1694911;84;20964;-83
2022/02/13 06:51:43;;;;;;;30.80;13.88;;;;;;;-5.09;77.71;99165.45;1694981;85;21462;-83
2022/02/13 06:54:10;;;;;;;29.32;14.45;;;;;;;-5.05;77.58;99163.11;1694817;84;20969;-83
2022/02/13 06:56:36;;;;;;;30.25;14.90;;;;;;;-4.99;77.54;99160.36;1694870;84;21048;-83
2022/02/13 06:59:04;;;;;;;34.53;15.15;;;;;;;-4.92;77.56;99162.05;1694961;85;21091;-83
2022/02/13 07:01:30;;;;;;;32.23;14.73;;;;;;;-4.86;77.33;99164.45;1702891;83;21028;-82
2022/02/13 07:03:57;;;;;;;26.68;14.73;;;;;;;-4.81;77.59;99163.86;1708780;83;21036;-83
2022/02/13 07:06:24;;;;;;;35.25;15.43;;;;;;;-4.71;77.48;99169.11;1707895;83;21020;-82
2022/02/13 07:08:50;;;;;;;34.43;15.50;;;;;;;-4.65;77.37;99164.23;1707430;83;21004;-82
2022/02/13 07:11:18;;;;;;;31.93;14.85;;;;;;;-4.53;77.34;99159.21;1715416;83;21486;-82
2022/02/13 07:13:45;;;;;;;32.00;15.00;;;;;;;-4.45;77.19;99157.87;1723607;83;20989;-82
2022/02/13 07:16:11;;;;;;;32.08;15.10;;;;;;;-4.39;77.22;99158.16;1724737;83;21016;-81
2022/02/13 07:18:38;;;;;;;27.45;15.23;;;;;;;-4.27;77.38;99157.88;1724740;83;21020;-81
2022/02/13 07:21:04;;;;;;;33.00;15.30;;;;;;;-4.19;77.02;99150.48;1723182;83;21079;-81
2022/02/13 07:23:30;;;;;;;29.25;15.95;;;;;;;-4.11;77.06;99154.33;1693445;85;21075;-82
2022/02/13 07:25:57;;;;;;;31.45;15.32;;;;;;;-4.01;76.83;99147.91;1693337;85;21025;-82
2022/02/13 07:31:09;;;;;;;35.30;15.30;;;;;;;-3.86;76.86;99137.36;1693354;85;20979;-83
2022/02/13 07:33:35;;;;;;;33.65;14.35;;;;;;;-3.73;76.75;99143.12;1693503;85;21076;-83
2022/02/13 07:36:02;;;;;;;28.80;13.95;;;;;;;-3.64;76.79;99137.47;1693318;85;21426;-82
2022/02/13 07:38:29;;;;;;;28.67;14.58;;;;;;;-3.55;76.70;99139.58;1693295;85;21052;-82
2022/02/13 07:40:55;;;;;;;34.08;14.93;;;;;;;-3.46;76.59;99140.00;1693118;85;21008;-83
2022/02/13 07:43:22;;;;;;;27.42;14.23;;;;;;;-3.38;76.58;99126.98;1725662;83;20992;-83
2022/02/13 07:45:48;;;;;;;34.90;14.85;;;;;;;-3.28;76.48;99136.47;1726488;83;21438;-83
2022/02/13 07:48:15;;;;;;;26.80;13.95;;;;;;;-3.19;76.32;99126.08;1726502;83;20993;-82
2022/02/13 07:50:41;;;;;;;32.93;14.38;;;;;;;-3.09;76.38;99129.07;1726165;83;21043;-82
2022/02/13 07:53:08;;;;;;;26.45;14.00;;;;;;;-2.98;76.32;99126.55;1726531;83;20989;-82
2022/02/13 07:55:34;;;;;;;33.15;14.38;;;;;;;-2.87;76.00;99128.72;1726436;83;20996;-82
2022/02/13 07:58:00;;;;;;;29.32;14.23;;;;;;;-2.80;76.28;99125.55;1726364;83;21071;-82
2022/02/13 08:00:27;;;;;;;32.03;15.08;;;;;;;-2.66;76.24;99123.13;1726584;83;21052;-82
2022/02/13 08:02:54;;;;;;;26.90;13.85;;;;;;;-2.55;76.08;99117.48;1726268;83;21020;-82
2022/02/13 08:05:20;;;;;;;28.57;14.03;;;;;;;-2.46;75.92;99124.78;1693575;83;21571;-83
2022/02/13 08:07:49;;;;;;;30.30;14.60;;;;;;;-2.36;75.92;99115.25;1693197;85;20996;-82
2022/02/13 08:10:16;;;;;;;28.55;15.23;;;;;;;-2.26;75.94;99114.79;1693204;84;21127;-82
2022/02/13 08:12:43;;;;;;;32.58;14.70;;;;;;;-2.13;76.05;99116.55;1698247;83;20986;-83
2022/02/13 08:15:10;;;;;;;33.35;15.05;;;;;;;-2.00;75.89;99104.92;1706958;84;21038;-83
2022/02/13 08:17:37;;;;;;;33.40;15.58;;;;;;;-1.89;75.85;99097.55;1706870;84;21003;-83
2022/02/13 08:20:07;;;;;;;30.20;13.88;;;;;;;-1.76;75.80;99100.20;1722129;83;21000;-83
2022/02/13 08:22:35;;;;;;;29.02;13.93;;;;;;;-1.64;75.64;99101.98;1726541;83;21028;-83
2022/02/13 08:25:04;;;;;;;33.53;14.18;;;;;;;-1.52;75.61;99095.45;1725480;83;21087;-82
2022/02/13 08:27:30;;;;;;;24.12;13.25;;;;;;;-1.39;75.35;99098.08;1688200;84;21561;-83
2022/02/13 08:29:58;;;;;;;32.65;13.60;;;;;;;-1.28;75.24;99088.07;1688109;84;21013;-83
2022/02/13 08:32:24;;;;;;;27.25;13.53;;;;;;;-1.16;75.26;99091.53;1673796;85;21030;-84
2022/02/13 08:34:53;;;;;;;29.18;13.75;;;;;;;-1.04;75.14;99088.03;1660548;86;21513;-84
2022/02/13 08:37:20;;;;;;;29.48;13.83;;;;;;;-0.91;75.01;99085.87;1673846;85;21038;-83
2022/02/13 08:39:47;;;;;;;28.98;12.50;;;;;;;-0.79;74.80;99086.27;1633582;86;21049;-83
2022/02/13 08:42:13;;;;;;;21.45;12.25;;;;;;;-0.67;74.55;99086.69;1638483;87;21033;-83
2022/02/13 08:44:40;;;;;;;24.60;13.48;;;;;;;-0.55;74.54;99078.80;1638549;88;21451;-83
2022/02/13 08:47:07;;;;;;;23.32;11.95;;;;;;;-0.48;73.79;99083.40;1638497;88;21037;-84
2022/02/13 08:49:33;;;;;;;25.02;13.15;;;;;;;-0.41;73.88;99081.44;1656434;84;21021;-83
2022/02/13 08:52:00;;;;;;;33.98;16.75;;;;;;;-0.31;73.68;99079.13;1684436;84;20989;-83
2022/02/13 08:54:26;;;;;;;22.48;10.88;;;;;;;-0.23;73.78;99074.16;1663489;86;21472;-83
2022/02/13 08:56:54;;;;;;;20.82;11.35;;;;;;;-0.16;73.49;99078.30;1694003;84;21006;-83
2022/02/13 08:59:20;;;;;;;23.52;11.50;;;;;;;-0.08;72.63;99072.47;1686059;85;21001;-83
2022/02/13 09:01:48;;;;;;;22.85;11.65;;;;;;;0.04;73.29;99066.30;1683917;84;21024;-83
2022/02/13 09:04:14;;;;;;;23.22;11.12;;;;;;;0.15;73.09;99061.83;1675560;85;21420;-84
2022/02/13 09:06:41;;;;;;;20.55;11.22;;;;;;;0.24;72.41;99067.31;1675526;85;21025;-83
2022/02/13 09:09:09;;;;;;;20.02;11.10;;;;;;;0.33;72.05;99068.03;1638458;88;21038;-83
2022/02/13 09:11:37;;;;;;;20.35;9.58;;;;;;;0.42;72.10;99067.40;1626053;88;21475;-83
2022/02/13 09:14:04;;;;;;;16.65;9.50;;;;;;;0.54;71.61;99061.20;1626137;87;20989;-83
2022/02/13 09:16:32;;;;;;;17.85;9.35;;;;;;;0.61;71.67;99066.18;1625966;87;21605;-83
2022/02/13 09:18:59;;;;;;;17.45;9.05;;;;;;;0.65;71.11;99058.50;1626247;87;21427;-83
2022/02/13 09:21:25;;;;;;;21.27;9.60;;;;;;;0.73;70.35;99062.63;1646341;86;21071;-83
2022/02/13 09:23:54;;;;;;;22.22;9.90;;;;;;;0.81;68.75;99058.91;1714912;84;20988;-83
2022/02/13 09:26:21;;;;;;;15.88;9.45;;;;;;;0.92;69.95;99057.91;1720264;82;21058;-83
2022/02/13 09:28:47;;;;;;;18.98;10.05;;;;;;;1.01;69.79;99060.76;1721650;83;21024;-83
2022/02/13 09:31:14;;;;;;;17.77;9.15;;;;;;;1.09;70.04;99060.05;1696712;84;21028;-83
2022/02/13 09:33:40;;;;;;;16.57;9.13;;;;;;;1.16;69.32;99057.64;1696723;85;21035;-83
2022/02/13 09:36:07;;;;;;;20.72;10.20;;;;;;;1.27;69.24;99045.27;1696474;85;21075;-83
2022/02/13 09:38:33;;;;;;;17.05;9.68;;;;;;;1.36;69.29;99059.87;1696720;84;21052;-83
2022/02/13 09:41:01;;;;;;;16.82;9.18;;;;;;;1.41;69.13;99050.86;1696595;84;21032;-81
2022/02/13 09:43:28;;;;;;;16.23;8.18;;;;;;;1.47;69.00;99048.80;1712674;83;21024;-83
2022/02/13 09:45:56;;;;;;;14.25;8.63;;;;;;;1.54;68.33;99044.20;1725012;83;21418;-83
2022/02/13 09:48:28;;;;;;;16.85;9.48;;;;;;;1.62;65.52;99040.01;1724871;83;21477;-83
2022/02/13 09:50:58;;;;;;;18.35;8.83;;;;;;;1.75;65.69;99039.00;1725060;83;21008;-83
2022/02/13 09:53:27;;;;;;;16.23;9.95;;;;;;;1.87;66.26;99034.03;1725193;83;21021;-83
2022/02/13 09:55:52;;;;;;;20.75;9.70;;;;;;;2.02;66.18;99036.53;1724752;83;21001;-83
2022/02/13 09:58:19;;;;;;;14.35;8.45;;;;;;;2.11;64.61;99028.47;1724979;83;21063;-83
2022/02/13 10:01:04;;;;;;;17.20;9.18;;;;;;;2.20;64.44;99031.70;1724982;83;21023;-83
2022/02/13 10:03:44;;;;;;;16.10;9.18;;;;;;;2.28;65.38;99027.07;1724941;83;21418;-82
2022/02/13 10:06:19;;;;;;;20.10;8.93;;;;;;;2.35;63.56;99015.86;1727222;83;21457;-82
2022/02/13 10:08:52;;;;;;;18.10;10.25;;;;;;;2.45;64.08;99015.19;1727146;83;21087;-84
2022/02/13 10:11:29;;;;;;;16.77;8.90;;;;;;;2.54;65.02;99009.69;1726924;83;21048;-81
2022/02/13 10:14:06;;;;;;;16.07;9.43;;;;;;;2.59;62.70;99004.11;1726325;83;21095;-81
2022/02/13 10:16:36;;;;;;;16.67;9.38;;;;;;;2.70;63.89;99001.26;1726892;83;21762;-81
2022/02/13 10:19:25;;;;;;;15.45;8.93;;;;;;;2.79;64.31;98995.75;1726999;83;21008;-82
2022/02/13 10:21:58;;;;;;;15.38;9.63;;;;;;;2.88;63.84;98985.44;1727048;83;20992;-83
2022/02/13 10:24:34;;;;;;;18.10;9.43;;;;;;;3.00;62.92;98980.40;1726993;83;20981;-83
2022/02/13 10:27:17;;;;;;;16.62;8.98;;;;;;;3.10;62.23;98972.70;1724191;82;21028;-83
2022/02/13 10:29:48;;;;;;;14.47;9.08;;;;;;;3.19;62.66;98966.30;1715859;83;20964;-83
2022/02/13 10:32:29;;;;;;;15.50;9.40;;;;;;;3.26;61.81;98965.56;1708498;83;20941;-83
2022/02/13 10:35:10;;;;;;;15.50;9.00;;;;;;;3.29;62.16;98962.97;1712725;83;21013;-82
2022/02/13 10:37:45;;;;;;;16.12;9.70;;;;;;;3.35;61.84;98956.95;1713974;83;21036;-82
2022/02/13 10:40:19;;;;;;;19.07;8.83;;;;;;;3.43;60.83;98947.47;1714009;83;21005;-82
2022/02/13 10:42:47;;;;;;;15.55;8.90;;;;;;;3.50;60.14;98942.31;1707889;83;21345;-82
2022/02/13 10:45:27;;;;;;;16.52;9.33;;;;;;;3.57;61.24;98937.59;1710476;83;21029;-82
2022/02/13 10:48:01;;;;;;;15.72;10.00;;;;;;;3.68;61.01;98942.98;1713678;83;20996;-82
2022/02/13 10:50:31;;;;;;;22.95;9.68;;;;;;;3.73;59.72;98936.06;1712195;83;21075;-84
2022/02/13 10:53:01;;;;;;;16.73;9.55;;;;;;;3.80;60.00;98931.78;1708206;83;21012;-83
2022/02/13 10:55:31;;;;;;;15.85;9.70;;;;;;;3.87;59.67;98924.47;1711963;83;20976;-83
2022/02/13 10:57:59;;;;;;;18.98;9.45;;;;;;;4.00;59.87;98921.56;1711446;83;21367;-83
2022/02/13 11:00:29;;;;;;;20.85;10.30;;;;;;;4.63;59.48;98906.02;1708205;83;20950;-83
2022/02/13 11:02:55;;;;;;;16.85;10.03;;;;;;;5.84;57.81;98914.27;1711669;83;20958;-83
2022/02/13 11:05:25;;;;;;;35.85;18.70;;;;;;;7.08;57.31;98896.53;1707398;83;20970;-83
2022/02/13 11:07:56;;;;;;;17.37;9.58;;;;;;;8.18;53.86;98896.20;1710579;83;21008;-82
2022/02/13 11:10:34;;;;;;;14.68;9.53;;;;;;;9.08;47.31;98890.77;1707660;83;20938;-82
2022/02/13 11:13:01;;;;;;;13.40;8.70;;;;;;;9.96;43.82;98876.59;1706873;83;21481;-82
2022/02/13 11:15:31;;;;;;;12.78;9.40;;;;;;;10.77;43.63;98874.13;1707121;83;20992;-82
2022/02/13 11:18:08;;;;;;;14.23;9.58;;;;;;;11.59;45.72;98868.69;1710424;83;21617;-83
2022/02/13 11:20:36;;;;;;;18.35;9.78;;;;;;;12.17;42.69;98860.92;1709775;83;20981;-82
2022/02/13 11:23:29;;;;;;;14.85;10.30;;;;;;;12.76;40.85;98863.55;1711988;83;21396;-82
2022/02/13 11:25:59;;;;;;;14.10;9.75;;;;;;;13.51;40.02;98856.33;1715763;83;21031;-82